createdAt,value
2023-05-12T00:00:00.272Z,4.20
2023-05-12T00:01:00.245Z,4.50
2023-05-12T00:02:00.251Z,4.60
2023-05-12T00:03:00.417Z,4.50
2023-05-12T00:04:00.372Z,5.10
2023-05-12T00:05:00.372Z,4.80
2023-05-12T00:06:00.174Z,4.70
2023-05-12T00:07:00.192Z,5.10
2023-05-12T00:08:00.160Z,4.60
2023-05-12T00:09:00.176Z,4.60
2023-05-12T00:10:00.168Z,5.00
2023-05-12T00:11:00.130Z,7.30
2023-05-12T00:12:00.132Z,5.40
2023-05-12T00:13:00.132Z,6.90
2023-05-12T00:14:00.152Z,7.00
2023-05-12T00:15:00.094Z,5.20
2023-05-12T00:16:00.128Z,5.10
2023-05-12T00:17:00.062Z,5.00
2023-05-12T00:18:00.102Z,5.10
2023-05-12T00:19:00.266Z,4.70
2023-05-12T00:20:00.035Z,4.60
2023-05-12T00:21:00.010Z,8.10
2023-05-12T00:22:00.010Z,6.10
2023-05-12T00:23:00.002Z,5.20
2023-05-12T00:24:00.003Z,4.90
2023-05-12T00:24:59.962Z,4.60
2023-05-12T00:26:00.001Z,4.30
2023-05-12T00:26:59.942Z,4.40
2023-05-12T00:27:59.992Z,4.70
2023-05-12T00:28:59.924Z,4.90
2023-05-12T00:29:59.909Z,5.10
2023-05-12T00:30:59.896Z,5.60
2023-05-12T00:31:59.919Z,5.10
2023-05-12T00:32:59.905Z,8.00
2023-05-12T00:33:59.881Z,4.90
2023-05-12T00:34:59.887Z,5.20
2023-05-12T00:35:59.845Z,4.90
2023-05-12T00:36:59.845Z,5.60
2023-05-12T00:38:00.267Z,5.10
2023-05-12T00:38:59.808Z,8.10
2023-05-12T00:39:59.797Z,5.30
2023-05-12T00:40:59.790Z,5.10
2023-05-12T00:42:00.198Z,8.70
2023-05-12T00:42:59.767Z,5.60
2023-05-12T00:43:59.775Z,5.80
2023-05-12T00:44:59.750Z,4.80
2023-05-12T00:45:59.759Z,5.20
2023-05-12T00:46:59.739Z,5.20
2023-05-12T00:47:59.796Z,6.30
2023-05-12T00:48:59.701Z,5.00
2023-05-12T00:49:59.689Z,6.10
2023-05-12T00:50:59.719Z,6.10
2023-05-12T00:51:59.691Z,5.30
2023-05-12T00:52:59.664Z,4.50
2023-05-12T00:53:59.645Z,5.50
2023-05-12T00:54:59.633Z,6.00
2023-05-12T00:55:59.646Z,7.60
2023-05-12T00:56:59.610Z,5.00
2023-05-12T00:57:59.620Z,4.20
2023-05-12T00:58:59.591Z,4.40
2023-05-12T00:59:59.577Z,4.50
2023-05-12T01:00:59.601Z,4.70
2023-05-12T01:01:59.559Z,8.90
2023-05-12T01:02:59.665Z,5.10
2023-05-12T01:03:59.549Z,5.00
2023-05-12T01:04:59.541Z,4.90
2023-05-12T01:05:59.606Z,5.80
2023-05-12T01:06:59.555Z,4.80
2023-05-12T01:07:59.518Z,4.50
2023-05-12T01:08:59.480Z,4.90
2023-05-12T01:09:59.491Z,6.10
2023-05-12T01:10:59.451Z,4.70
2023-05-12T01:11:59.449Z,4.90
2023-05-12T01:12:59.434Z,6.10
2023-05-12T01:13:59.423Z,5.10
2023-05-12T01:14:59.427Z,4.40
2023-05-12T01:15:59.414Z,4.90
2023-05-12T01:16:59.450Z,4.70
2023-05-12T01:17:59.389Z,4.30
2023-05-12T01:18:59.418Z,5.40
2023-05-12T01:19:59.377Z,5.00
2023-05-12T01:20:59.343Z,4.60
2023-05-12T01:21:59.332Z,5.70
2023-05-12T01:22:59.356Z,4.70
2023-05-12T01:23:59.323Z,5.00
2023-05-12T01:24:59.299Z,5.10
2023-05-12T01:25:59.289Z,5.00
2023-05-12T01:26:59.273Z,5.60
2023-05-12T01:27:59.266Z,5.00
2023-05-12T01:28:59.270Z,6.00
2023-05-12T01:29:59.243Z,5.60
2023-05-12T01:30:59.269Z,5.30
2023-05-12T01:31:59.223Z,8.60
2023-05-12T01:32:59.336Z,6.50
2023-05-12T01:33:59.263Z,4.80
2023-05-12T01:34:59.198Z,4.40
2023-05-12T01:35:59.177Z,6.40
2023-05-12T01:36:59.165Z,6.30
2023-05-12T01:37:59.182Z,5.30
2023-05-12T01:38:59.161Z,4.50
2023-05-12T01:39:59.135Z,5.00
2023-05-12T01:40:59.124Z,5.50
2023-05-12T01:41:59.108Z,5.20
2023-05-12T01:42:59.118Z,5.70
2023-05-12T01:43:59.085Z,8.10
2023-05-12T01:44:59.084Z,7.10
2023-05-12T01:45:59.183Z,7.10
2023-05-12T01:46:59.065Z,9.50
2023-05-12T01:47:59.105Z,9.00
2023-05-12T01:48:59.021Z,10.20
2023-05-12T01:49:59.009Z,8.40
2023-05-12T01:50:59.004Z,6.70
2023-05-12T01:51:59.013Z,6.80
2023-05-12T01:52:58.986Z,8.30
2023-05-12T01:53:58.968Z,8.50
2023-05-12T01:54:58.977Z,8.10
2023-05-12T01:55:58.950Z,8.90
2023-05-12T01:56:58.945Z,10.20
2023-05-12T01:57:58.923Z,7.60
2023-05-12T01:58:58.988Z,7.20
2023-05-12T01:59:58.905Z,7.80
2023-05-12T02:00:58.910Z,6.90
2023-05-12T02:01:59.298Z,7.30
2023-05-12T02:02:58.958Z,8.60
2023-05-12T02:03:58.964Z,7.70
2023-05-12T02:04:58.843Z,9.20
2023-05-12T02:05:58.855Z,7.20
2023-05-12T02:06:58.822Z,8.90
2023-05-12T02:07:58.813Z,6.80
2023-05-12T02:08:58.800Z,8.60
2023-05-12T02:09:58.794Z,7.50
2023-05-12T02:10:58.810Z,8.40
2023-05-12T02:11:58.770Z,7.40
2023-05-12T02:12:58.757Z,7.30
2023-05-12T02:13:58.751Z,9.90
2023-05-12T02:14:58.768Z,8.20
2023-05-12T02:15:58.758Z,9.20
2023-05-12T02:16:58.716Z,7.90
2023-05-12T02:17:58.724Z,9.30
2023-05-12T02:18:58.725Z,8.50
2023-05-12T02:19:58.702Z,8.20
2023-05-12T02:20:58.664Z,7.90
2023-05-12T02:21:58.659Z,8.00
2023-05-12T02:22:58.646Z,7.60
2023-05-12T02:23:58.633Z,7.10
2023-05-12T02:24:58.644Z,7.80
2023-05-12T02:25:58.615Z,7.20
2023-05-12T02:26:58.673Z,6.50
2023-05-12T02:27:58.591Z,5.70
2023-05-12T02:28:58.613Z,7.30
2023-05-12T02:29:58.577Z,9.40
2023-05-12T02:30:58.553Z,7.80
2023-05-12T02:31:58.577Z,8.90
2023-05-12T02:32:58.579Z,8.50
2023-05-12T02:33:58.549Z,7.30
2023-05-12T02:34:58.514Z,7.70
2023-05-12T02:35:58.502Z,8.20
2023-05-12T02:36:58.482Z,8.00
2023-05-12T02:37:58.478Z,7.30
2023-05-12T02:38:58.477Z,6.60
2023-05-12T02:39:58.456Z,6.60
2023-05-12T02:40:58.442Z,7.10
2023-05-12T02:41:58.432Z,9.10
2023-05-12T02:42:58.470Z,8.80
2023-05-12T02:43:58.423Z,7.30
2023-05-12T02:44:58.396Z,6.90
2023-05-12T02:45:58.437Z,12.00
2023-05-12T02:46:58.382Z,8.50
2023-05-12T02:47:58.441Z,10.00
2023-05-12T02:48:58.352Z,7.00
2023-05-12T02:49:58.345Z,7.00
2023-05-12T02:50:58.330Z,6.40
2023-05-12T02:51:58.332Z,7.50
2023-05-12T02:52:58.331Z,7.10
2023-05-12T02:53:58.302Z,8.00
2023-05-12T02:54:58.288Z,7.70
2023-05-12T02:55:58.277Z,6.60
2023-05-12T02:56:58.294Z,5.50
2023-05-12T02:57:58.281Z,5.80
2023-05-12T02:58:58.269Z,6.60
2023-05-12T02:59:58.235Z,5.60
2023-05-12T03:01:09.356Z,5.40
2023-05-12T03:01:59.265Z,5.80
2023-05-12T03:02:58.366Z,6.60
2023-05-12T03:03:58.195Z,6.70
2023-05-12T03:04:58.183Z,6.90
2023-05-12T03:05:58.460Z,6.30
2023-05-12T03:06:58.174Z,5.40
2023-05-12T03:07:58.158Z,5.80
2023-05-12T03:08:58.138Z,7.10
2023-05-12T03:09:58.124Z,6.00
2023-05-12T03:10:58.127Z,6.70
2023-05-12T03:11:58.102Z,6.90
2023-05-12T03:12:58.096Z,6.80
2023-05-12T03:13:58.081Z,7.30
2023-05-12T03:14:58.083Z,7.00
2023-05-12T03:15:58.070Z,7.50
2023-05-12T03:16:58.065Z,8.00
2023-05-12T03:17:58.088Z,9.00
2023-05-12T03:18:58.087Z,8.80
2023-05-12T03:19:58.269Z,8.00
2023-05-12T03:20:58.008Z,7.30
2023-05-12T03:21:58.008Z,9.90
2023-05-12T03:22:57.973Z,10.70
2023-05-12T03:23:57.973Z,9.90
2023-05-12T03:24:57.981Z,7.20
2023-05-12T03:25:57.936Z,6.60
2023-05-12T03:26:57.926Z,8.70
2023-05-12T03:27:57.916Z,6.50
2023-05-12T03:28:57.919Z,9.70
2023-05-12T03:29:57.906Z,7.40
2023-05-12T03:30:58.012Z,8.70
2023-05-12T03:31:57.877Z,9.00
2023-05-12T03:32:57.931Z,7.30
2023-05-12T03:33:57.858Z,7.80
2023-05-12T03:34:57.877Z,7.80
2023-05-12T03:35:57.833Z,11.20
2023-05-12T03:36:57.815Z,9.40
2023-05-12T03:37:57.808Z,10.30
2023-05-12T03:38:57.807Z,10.50
2023-05-12T03:39:57.782Z,10.10
2023-05-12T03:40:57.773Z,10.40
2023-05-12T03:41:57.772Z,13.20
2023-05-12T03:42:57.752Z,12.70
2023-05-12T03:43:57.761Z,15.40
2023-05-12T03:44:57.726Z,15.90
2023-05-12T03:45:57.824Z,15.50
2023-05-12T03:46:57.813Z,12.60
2023-05-12T03:47:57.755Z,13.50
2023-05-12T03:48:57.691Z,14.40
2023-05-12T03:49:57.668Z,17.40
2023-05-12T03:50:57.688Z,13.90
2023-05-12T03:51:57.655Z,16.50
2023-05-12T03:52:57.660Z,18.50
2023-05-12T03:53:57.621Z,27.20
2023-05-12T03:54:57.612Z,20.20
2023-05-12T03:55:57.602Z,35.20
2023-05-12T03:56:57.595Z,49.10
2023-05-12T03:57:57.608Z,26.00
2023-05-12T03:58:57.569Z,28.30
2023-05-12T03:59:57.562Z,18.70
2023-05-12T04:00:57.556Z,16.10
2023-05-12T04:01:57.568Z,18.70
2023-05-12T04:02:57.681Z,22.00
2023-05-12T04:03:57.615Z,21.20
2023-05-12T04:04:57.509Z,23.40
2023-05-12T04:05:57.503Z,25.30
2023-05-12T04:06:57.490Z,27.60
2023-05-12T04:07:57.473Z,20.80
2023-05-12T04:08:57.456Z,21.10
2023-05-12T04:09:57.448Z,16.80
2023-05-12T04:10:57.443Z,24.40
2023-05-12T04:11:57.454Z,17.10
2023-05-12T04:12:57.418Z,13.60
2023-05-12T04:13:57.403Z,18.80
2023-05-12T04:14:57.398Z,11.50
2023-05-12T04:15:57.420Z,12.10
2023-05-12T04:16:57.387Z,12.80
2023-05-12T04:17:57.422Z,14.50
2023-05-12T04:18:57.550Z,14.90
2023-05-12T04:19:57.350Z,17.30
2023-05-12T04:20:57.346Z,28.90
2023-05-12T04:21:57.310Z,28.90
2023-05-12T04:22:57.300Z,24.50
2023-05-12T04:23:57.297Z,42.00
2023-05-12T04:24:57.274Z,24.10
2023-05-12T04:25:57.291Z,17.30
2023-05-12T04:26:57.267Z,22.10
2023-05-12T04:27:57.247Z,15.40
2023-05-12T04:28:57.240Z,14.00
2023-05-12T04:29:57.241Z,22.60
2023-05-12T04:30:57.239Z,40.20
2023-05-12T04:31:57.229Z,25.80
2023-05-12T04:32:57.271Z,23.60
2023-05-12T04:33:57.189Z,18.10
2023-05-12T04:34:57.212Z,15.90
2023-05-12T04:35:57.175Z,14.70
2023-05-12T04:36:57.145Z,15.20
2023-05-12T04:37:57.133Z,11.50
2023-05-12T04:38:57.127Z,11.60
2023-05-12T04:39:57.142Z,15.30
2023-05-12T04:40:57.104Z,18.80
2023-05-12T04:41:57.088Z,14.60
2023-05-12T04:42:57.082Z,17.50
2023-05-12T04:44:00.320Z,11.70
2023-05-12T04:44:57.072Z,13.00
2023-05-12T04:45:59.293Z,16.90
2023-05-12T04:46:57.036Z,14.60
2023-05-12T04:47:57.105Z,16.90
2023-05-12T04:48:57.046Z,13.90
2023-05-12T04:49:57.007Z,13.60
2023-05-12T04:50:57.014Z,16.50
2023-05-12T04:51:56.978Z,15.00
2023-05-12T04:52:56.969Z,14.00
2023-05-12T04:53:56.989Z,11.70
2023-05-12T04:54:56.949Z,12.60
2023-05-12T04:55:56.947Z,14.80
2023-05-12T04:56:56.922Z,14.60
2023-05-12T04:57:56.938Z,13.00
2023-05-12T04:58:56.917Z,16.70
2023-05-12T04:59:56.895Z,17.30
2023-05-12T05:00:56.926Z,16.60
2023-05-12T05:01:56.874Z,14.40
2023-05-12T05:02:56.967Z,17.10
2023-05-12T05:03:56.948Z,18.00
2023-05-12T05:04:56.841Z,14.00
2023-05-12T05:05:56.822Z,16.40
2023-05-12T05:06:56.843Z,13.10
2023-05-12T05:07:56.821Z,15.10
2023-05-12T05:08:56.786Z,17.70
2023-05-12T05:09:56.794Z,16.90
2023-05-12T05:10:56.772Z,18.40
2023-05-12T05:11:56.771Z,16.40
2023-05-12T05:12:56.765Z,16.50
2023-05-12T05:13:56.737Z,14.30
2023-05-12T05:14:56.723Z,13.40
2023-05-12T05:15:56.823Z,14.50
2023-05-12T05:16:56.717Z,16.70
2023-05-12T05:17:56.731Z,15.60
2023-05-12T05:18:58.251Z,15.10
2023-05-12T05:19:59.346Z,17.10
2023-05-12T05:20:58.800Z,17.10
2023-05-12T05:21:56.680Z,17.60
2023-05-12T05:22:56.658Z,13.00
2023-05-12T05:23:56.641Z,16.70
2023-05-12T05:24:56.614Z,15.20
2023-05-12T05:25:56.632Z,17.90
2023-05-12T05:26:56.611Z,13.90
2023-05-12T05:27:56.583Z,13.30
2023-05-12T05:28:56.572Z,13.70
2023-05-12T05:29:56.558Z,14.90
2023-05-12T05:30:56.613Z,15.90
2023-05-12T05:31:56.599Z,15.40
2023-05-12T05:32:56.562Z,13.50
2023-05-12T05:33:56.520Z,14.00
2023-05-12T05:34:56.520Z,12.40
2023-05-12T05:35:56.622Z,13.70
2023-05-12T05:36:56.485Z,14.50
2023-05-12T05:37:56.468Z,14.00
2023-05-12T05:38:56.571Z,12.90
2023-05-12T05:39:56.443Z,13.90
2023-05-12T05:40:57.609Z,11.90
2023-05-12T05:41:56.442Z,11.50
2023-05-12T05:42:56.412Z,11.20
2023-05-12T05:43:56.398Z,11.00
2023-05-12T05:44:56.411Z,11.80
2023-05-12T05:45:56.398Z,13.90
2023-05-12T05:46:56.411Z,13.90
2023-05-12T05:47:56.417Z,13.50
2023-05-12T05:48:56.351Z,12.40
2023-05-12T05:49:56.350Z,13.70
2023-05-12T05:50:56.343Z,13.70
2023-05-12T05:51:56.316Z,11.30
2023-05-12T05:52:56.316Z,12.00
2023-05-12T05:53:56.299Z,11.20
2023-05-12T05:54:56.327Z,11.20
2023-05-12T05:55:56.262Z,12.10
2023-05-12T05:56:56.266Z,13.10
2023-05-12T05:57:56.240Z,13.30
2023-05-12T05:58:56.251Z,12.50
2023-05-12T05:59:56.232Z,12.90
2023-05-12T06:00:56.216Z,13.30
2023-05-12T06:01:56.222Z,13.50
2023-05-12T06:02:56.283Z,12.30
2023-05-12T06:03:56.334Z,13.30
2023-05-12T06:04:56.174Z,12.90
2023-05-12T06:05:56.164Z,13.70
2023-05-12T06:06:56.148Z,13.40
2023-05-12T06:07:56.141Z,13.30
2023-05-12T06:08:56.196Z,14.60
2023-05-12T06:09:56.109Z,13.40
2023-05-12T06:10:56.120Z,13.60
2023-05-12T06:11:56.085Z,14.10
2023-05-12T06:12:56.070Z,14.30
2023-05-12T06:13:56.080Z,14.10
2023-05-12T06:14:56.070Z,14.30
2023-05-12T06:15:56.048Z,14.90
2023-05-12T06:16:56.061Z,13.90
2023-05-12T06:17:56.096Z,14.40
2023-05-12T06:18:56.085Z,14.30
2023-05-12T06:19:55.989Z,14.60
2023-05-12T06:20:55.982Z,14.00
2023-05-12T06:21:55.975Z,13.50
2023-05-12T06:22:55.980Z,13.50
2023-05-12T06:23:55.955Z,13.90
2023-05-12T06:24:55.941Z,13.10
2023-05-12T06:25:55.936Z,13.20
2023-05-12T06:26:56.011Z,14.60
2023-05-12T06:27:55.984Z,15.10
2023-05-12T06:28:55.893Z,14.50
2023-05-12T06:29:55.889Z,14.30
2023-05-12T06:30:55.887Z,13.00
2023-05-12T06:31:55.980Z,14.00
2023-05-12T06:32:56.167Z,14.80
2023-05-12T06:33:55.839Z,14.40
2023-05-12T06:34:55.830Z,13.50
2023-05-12T06:35:55.815Z,14.20
2023-05-12T06:36:55.827Z,14.50
2023-05-12T06:37:55.863Z,14.00
2023-05-12T06:38:55.785Z,13.30
2023-05-12T06:39:55.786Z,13.70
2023-05-12T06:40:55.781Z,14.00
2023-05-12T06:41:55.774Z,13.00
2023-05-12T06:42:55.776Z,13.00
2023-05-12T06:43:55.749Z,12.30
2023-05-12T06:44:55.727Z,12.60
2023-05-12T06:45:55.758Z,12.20
2023-05-12T06:46:55.701Z,11.20
2023-05-12T06:47:55.736Z,11.70
2023-05-12T06:48:55.702Z,12.20
2023-05-12T06:49:55.670Z,10.20
2023-05-12T06:50:55.891Z,10.70
2023-05-12T06:51:55.641Z,10.70
2023-05-12T06:52:55.638Z,11.20
2023-05-12T06:53:55.616Z,13.70
2023-05-12T06:54:55.635Z,10.30
2023-05-12T06:55:55.616Z,9.80
2023-05-12T06:56:55.591Z,9.70
2023-05-12T06:57:55.691Z,11.00
2023-05-12T06:58:55.638Z,11.70
2023-05-12T06:59:55.588Z,10.40
2023-05-12T07:00:55.552Z,10.70
2023-05-12T07:01:55.560Z,10.70
2023-05-12T07:02:55.526Z,9.60
2023-05-12T07:03:55.531Z,10.80
2023-05-12T07:04:55.513Z,13.10
2023-05-12T07:05:55.540Z,10.40
2023-05-12T07:06:55.475Z,9.50
2023-05-12T07:07:55.465Z,10.60
2023-05-12T07:08:55.463Z,10.70
2023-05-12T07:09:55.460Z,9.30
2023-05-12T07:10:55.430Z,8.70
2023-05-12T07:11:55.426Z,8.90
2023-05-12T07:12:55.414Z,8.40
2023-05-12T07:13:55.425Z,11.00
2023-05-12T07:14:55.463Z,10.00
2023-05-12T07:15:55.393Z,9.40
2023-05-12T07:16:55.385Z,8.20
2023-05-12T07:17:55.399Z,8.40
2023-05-12T07:18:55.416Z,9.10
2023-05-12T07:19:55.329Z,9.70
2023-05-12T07:20:55.324Z,8.30
2023-05-12T07:21:55.302Z,9.10
2023-05-12T07:22:55.300Z,8.00
2023-05-12T07:23:55.296Z,8.10
2023-05-12T07:24:55.295Z,8.10
2023-05-12T07:25:55.257Z,7.80
2023-05-12T07:26:55.276Z,8.00
2023-05-12T07:27:55.255Z,8.10
2023-05-12T07:28:55.243Z,7.70
2023-05-12T07:29:55.217Z,8.20
2023-05-12T07:30:55.253Z,7.30
2023-05-12T07:31:55.214Z,7.50
2023-05-12T07:32:55.215Z,7.80
2023-05-12T07:33:55.176Z,8.70
2023-05-12T07:34:55.158Z,7.70
2023-05-12T07:35:55.148Z,8.40
2023-05-12T07:36:55.163Z,8.10
2023-05-12T07:37:55.141Z,7.80
2023-05-12T07:38:55.129Z,7.80
2023-05-12T07:39:55.106Z,8.10
2023-05-12T07:40:55.090Z,9.60
2023-05-12T07:41:55.438Z,8.30
2023-05-12T07:42:55.094Z,8.10
2023-05-12T07:43:55.060Z,7.60
2023-05-12T07:44:55.055Z,8.60
2023-05-12T07:45:55.038Z,8.00
2023-05-12T07:46:55.147Z,8.70
2023-05-12T07:47:55.063Z,9.10
2023-05-12T07:48:55.005Z,8.20
2023-05-12T07:49:54.991Z,9.60
2023-05-12T07:50:54.990Z,8.80
2023-05-12T07:51:54.991Z,8.70
2023-05-12T07:52:54.980Z,8.60
2023-05-12T07:53:54.961Z,9.30
2023-05-12T07:54:54.940Z,9.30
2023-05-12T07:55:55.280Z,11.50
2023-05-12T07:56:54.954Z,9.00
2023-05-12T07:57:54.912Z,10.70
2023-05-12T07:58:54.906Z,9.70
2023-05-12T07:59:54.888Z,10.20
2023-05-12T08:00:54.890Z,9.80
2023-05-12T08:01:54.879Z,11.90
2023-05-12T08:02:55.177Z,9.10
2023-05-12T08:03:54.883Z,8.70
2023-05-12T08:04:54.837Z,8.40
2023-05-12T08:05:54.857Z,8.40
2023-05-12T08:06:54.810Z,8.00
2023-05-12T08:07:54.813Z,9.00
2023-05-12T08:08:54.786Z,8.30
2023-05-12T08:09:54.787Z,8.40
2023-05-12T08:10:54.774Z,8.70
2023-05-12T08:11:54.752Z,8.40
2023-05-12T08:12:54.755Z,7.70
2023-05-12T08:13:54.724Z,7.90
2023-05-12T08:14:54.739Z,7.70
2023-05-12T08:15:54.715Z,7.30
2023-05-12T08:16:54.724Z,7.90
2023-05-12T08:17:54.695Z,7.80
2023-05-12T08:18:54.810Z,7.30
2023-05-12T08:19:54.677Z,7.40
2023-05-12T08:20:54.652Z,6.90
2023-05-12T08:21:54.638Z,7.40
2023-05-12T08:22:54.627Z,9.20
2023-05-12T08:23:54.649Z,7.10
2023-05-12T08:24:54.627Z,8.00
2023-05-12T08:25:54.591Z,7.20
2023-05-12T08:26:54.601Z,8.30
2023-05-12T08:27:54.570Z,7.00
2023-05-12T08:28:54.598Z,6.80
2023-05-12T08:29:54.550Z,7.00
2023-05-12T08:30:54.556Z,6.70
2023-05-12T08:31:54.541Z,6.20
2023-05-12T08:32:54.609Z,7.30
2023-05-12T08:34:55.508Z,6.60
2023-05-12T08:35:54.510Z,6.90
2023-05-12T08:36:54.469Z,6.70
2023-05-12T08:37:54.475Z,6.50
2023-05-12T08:38:54.451Z,5.80
2023-05-12T08:39:54.442Z,6.70
2023-05-12T08:40:54.433Z,5.70
2023-05-12T08:41:54.419Z,5.60
2023-05-12T08:42:54.431Z,5.40
2023-05-12T08:43:54.412Z,5.70
2023-05-12T08:44:54.394Z,5.70
2023-05-12T08:45:54.383Z,5.20
2023-05-12T08:46:54.391Z,5.30
2023-05-12T08:47:54.481Z,5.10
2023-05-12T08:48:54.350Z,5.30
2023-05-12T08:49:54.333Z,5.10
2023-05-12T08:50:54.362Z,6.10
2023-05-12T08:51:58.338Z,5.30
2023-05-12T08:52:54.319Z,5.20
2023-05-12T08:53:54.305Z,5.50
2023-05-12T08:54:56.333Z,4.40
2023-05-12T08:57:09.522Z,5.30
2023-05-12T08:57:54.268Z,6.10
2023-05-12T08:58:54.234Z,6.90
2023-05-12T08:59:54.225Z,4.50
2023-05-12T09:00:54.267Z,6.30
2023-05-12T09:01:54.239Z,5.30
2023-05-12T09:02:54.972Z,4.80
2023-05-12T09:03:54.216Z,5.90
2023-05-12T09:04:54.290Z,4.50
2023-05-12T09:05:54.176Z,4.20
2023-05-12T09:06:55.931Z,5.80
2023-05-12T09:07:54.143Z,4.90
2023-05-12T09:08:54.125Z,5.50
2023-05-12T09:09:54.117Z,4.90
2023-05-12T09:10:54.116Z,5.00
2023-05-12T09:11:54.099Z,5.40
2023-05-12T09:12:54.082Z,6.00
2023-05-12T09:13:54.073Z,6.40
2023-05-12T09:14:54.074Z,5.00
2023-05-12T09:15:54.152Z,5.00
2023-05-12T09:16:54.037Z,7.40
2023-05-12T09:17:54.093Z,7.30
2023-05-12T09:18:54.042Z,7.20
2023-05-12T09:19:54.212Z,6.30
2023-05-12T09:20:54.028Z,6.30
2023-05-12T09:21:53.989Z,3.90
2023-05-12T09:22:53.993Z,5.80
2023-05-12T09:23:53.971Z,6.60
2023-05-12T09:24:53.980Z,6.80
2023-05-12T09:25:53.955Z,3.10
2023-05-12T09:26:53.958Z,3.50
2023-05-12T09:27:53.921Z,6.70
2023-05-12T09:28:53.915Z,6.20
2023-05-12T09:30:53.923Z,4.40
2023-05-12T09:31:53.930Z,3.60
2023-05-12T09:32:53.879Z,4.20
2023-05-12T09:33:53.872Z,3.70
2023-05-12T09:34:53.872Z,4.90
2023-05-12T09:35:53.841Z,5.10
2023-05-12T09:36:53.824Z,3.20
2023-05-12T09:37:53.817Z,7.70
2023-05-12T09:38:53.878Z,5.00
2023-05-12T09:39:53.797Z,3.90
2023-05-12T09:40:53.783Z,4.60
2023-05-12T09:41:53.771Z,3.90
2023-05-12T09:42:53.755Z,4.80
2023-05-12T09:43:53.776Z,3.10
2023-05-12T09:44:53.737Z,7.70
2023-05-12T09:45:53.774Z,3.80
2023-05-12T09:46:53.714Z,5.00
2023-05-12T09:47:53.804Z,6.00
2023-05-12T09:48:53.723Z,7.30
2023-05-12T09:49:53.688Z,5.10
2023-05-12T09:50:53.686Z,3.90
2023-05-12T09:51:55.607Z,5.60
2023-05-12T09:52:53.664Z,4.20
2023-05-12T09:53:53.898Z,5.70
2023-05-12T09:54:53.765Z,3.90
2023-05-12T09:55:53.623Z,4.40
2023-05-12T09:56:53.621Z,4.30
2023-05-12T09:57:53.609Z,3.70
2023-05-12T09:58:53.582Z,4.30
2023-05-12T09:59:53.616Z,3.50
2023-05-12T10:01:53.586Z,4.30
2023-05-12T10:02:53.637Z,4.30
2023-05-12T10:03:53.530Z,5.50
2023-05-12T10:04:53.568Z,6.30
2023-05-12T10:05:53.569Z,7.00
2023-05-12T10:06:53.509Z,8.90
2023-05-12T10:07:53.498Z,3.80
2023-05-12T10:08:53.469Z,4.30
2023-05-12T10:09:53.470Z,5.40
2023-05-12T10:10:53.508Z,5.90
2023-05-12T10:11:54.023Z,4.50
2023-05-12T10:12:53.428Z,4.80
2023-05-12T10:13:53.422Z,6.50
2023-05-12T10:14:53.406Z,7.90
2023-05-12T10:15:53.397Z,6.30
2023-05-12T10:16:53.417Z,4.80
2023-05-12T10:17:54.078Z,4.80
2023-05-12T10:18:53.386Z,5.70
2023-05-12T10:19:53.347Z,4.60
2023-05-12T10:20:53.363Z,5.10
2023-05-12T10:21:53.347Z,5.70
2023-05-12T10:22:53.323Z,4.30
2023-05-12T10:23:53.329Z,6.00
2023-05-12T10:24:53.298Z,4.40
2023-05-12T10:25:53.297Z,5.10
2023-05-12T10:26:53.335Z,7.10
2023-05-12T10:27:53.288Z,5.90
2023-05-12T10:28:53.254Z,5.90
2023-05-12T10:29:53.754Z,4.10
2023-05-12T10:30:53.282Z,4.00
2023-05-12T10:31:53.248Z,4.10
2023-05-12T10:32:53.286Z,4.30
2023-05-12T10:33:53.201Z,3.30
2023-05-12T10:34:53.203Z,3.10
2023-05-12T10:35:53.180Z,5.10
2023-05-12T10:36:53.163Z,5.70
2023-05-12T10:37:53.155Z,4.30
2023-05-12T10:38:53.140Z,6.10
2023-05-12T10:39:53.150Z,4.70
2023-05-12T10:40:53.126Z,2.90
2023-05-12T10:41:53.113Z,4.60
2023-05-12T10:42:53.151Z,4.50
2023-05-12T10:43:53.106Z,4.50
2023-05-12T10:44:53.086Z,4.40
2023-05-12T10:45:53.086Z,6.20
2023-05-12T10:46:53.078Z,6.70
2023-05-12T10:47:53.096Z,6.90
2023-05-12T10:48:53.051Z,8.10
2023-05-12T10:49:53.064Z,4.30
2023-05-12T10:50:53.014Z,4.00
2023-05-12T10:51:53.008Z,4.40
2023-05-12T10:52:52.994Z,6.40
2023-05-12T10:53:54.813Z,5.50
2023-05-12T10:54:52.968Z,5.40
2023-05-12T10:55:53.268Z,4.60
2023-05-12T10:56:53.217Z,4.50
2023-05-12T10:57:53.310Z,3.90
2023-05-12T10:58:53.103Z,5.50
2023-05-12T10:59:53.481Z,6.90
2023-05-12T11:00:53.523Z,5.30
2023-05-12T11:01:53.593Z,3.40
2023-05-12T11:02:54.086Z,5.30
2023-05-12T11:03:54.000Z,4.70
2023-05-12T11:04:53.234Z,4.00
2023-05-12T11:05:53.268Z,4.50
2023-05-12T11:06:53.277Z,3.60
2023-05-12T11:07:53.148Z,6.20
2023-05-12T11:08:53.220Z,5.40
2023-05-12T11:09:58.674Z,6.60
2023-05-12T11:10:53.707Z,4.90
2023-05-12T11:11:53.517Z,3.90
2023-05-12T11:12:52.774Z,3.10
2023-05-12T11:13:52.765Z,5.20
2023-05-12T11:14:52.771Z,3.90
2023-05-12T11:15:52.758Z,3.10
2023-05-12T11:16:52.757Z,3.00
2023-05-12T11:17:52.732Z,4.40
2023-05-12T11:18:52.769Z,3.70
2023-05-12T11:19:52.756Z,3.50
2023-05-12T11:20:52.700Z,2.80
2023-05-12T11:21:52.698Z,3.10
2023-05-12T11:22:52.674Z,5.20
2023-05-12T11:23:52.654Z,4.50
2023-05-12T11:24:53.131Z,4.10
2023-05-12T11:25:52.767Z,3.40
2023-05-12T11:26:52.624Z,3.40
2023-05-12T11:27:52.608Z,2.80
2023-05-12T11:28:52.605Z,7.80
2023-05-12T11:29:52.593Z,6.80
2023-05-12T11:30:54.721Z,5.10
2023-05-12T11:31:52.615Z,6.50
2023-05-12T11:32:52.573Z,4.00
2023-05-12T11:34:04.640Z,4.90
2023-05-12T11:34:53.555Z,5.10
2023-05-12T11:35:52.545Z,5.60
2023-05-12T11:36:52.513Z,4.90
2023-05-12T11:37:52.559Z,4.00
2023-05-12T11:38:52.510Z,4.10
2023-05-12T11:39:52.490Z,3.80
2023-05-12T11:40:52.480Z,3.70
2023-05-12T11:41:56.834Z,6.80
2023-05-12T11:42:53.444Z,3.80
2023-05-12T11:43:52.439Z,4.80
2023-05-12T11:44:52.447Z,5.20
2023-05-12T11:45:53.133Z,6.70
2023-05-12T11:46:52.459Z,4.60
2023-05-12T11:47:52.447Z,3.60
2023-05-12T11:48:52.398Z,5.90
2023-05-12T11:49:52.396Z,5.80
2023-05-12T11:50:52.426Z,5.70
2023-05-12T11:51:52.432Z,4.10
2023-05-12T11:52:52.360Z,5.30
2023-05-12T11:53:52.365Z,4.80
2023-05-12T11:54:52.451Z,4.10
2023-05-12T11:55:52.324Z,4.90
2023-05-12T11:56:52.316Z,6.80
2023-05-12T11:57:52.370Z,4.20
2023-05-12T11:58:52.450Z,4.90
2023-05-12T11:59:52.261Z,6.10
2023-05-12T12:00:52.258Z,5.20
2023-05-12T12:01:52.272Z,5.10
2023-05-12T12:02:52.339Z,3.60
2023-05-12T12:03:52.335Z,6.10
2023-05-12T12:04:52.212Z,3.90
2023-05-12T12:05:52.210Z,6.30
2023-05-12T12:06:52.192Z,5.10
2023-05-12T12:07:52.197Z,5.40
2023-05-12T12:08:52.193Z,5.40
2023-05-12T12:09:52.164Z,4.00
2023-05-12T12:10:52.152Z,6.00
2023-05-12T12:11:52.149Z,3.30
2023-05-12T12:12:52.137Z,6.10
2023-05-12T12:13:52.112Z,3.30
2023-05-12T12:14:52.100Z,4.90
2023-05-12T12:15:52.152Z,4.80
2023-05-12T12:16:52.094Z,5.20
2023-05-12T12:17:52.134Z,6.20
2023-05-12T12:18:52.145Z,5.50
2023-05-12T12:19:52.052Z,3.20
2023-05-12T12:20:52.043Z,4.10
2023-05-12T12:21:52.043Z,3.90
2023-05-12T12:22:52.036Z,4.10
2023-05-12T12:23:52.035Z,3.70
2023-05-12T12:24:51.999Z,5.10
2023-05-12T12:25:51.997Z,4.20
2023-05-12T12:26:51.988Z,3.80
2023-05-12T12:27:51.966Z,5.90
2023-05-12T12:28:51.980Z,3.40
2023-05-12T12:29:51.937Z,5.30
2023-05-12T12:30:51.930Z,5.20
2023-05-12T12:31:52.001Z,4.20
2023-05-12T12:32:51.965Z,5.60
2023-05-12T12:33:51.908Z,3.90
2023-05-12T12:34:51.925Z,4.60
2023-05-12T12:35:51.886Z,4.10
2023-05-12T12:36:51.876Z,5.50
2023-05-12T12:37:51.900Z,4.50
2023-05-12T12:38:51.844Z,5.90
2023-05-12T12:39:51.829Z,3.40
2023-05-12T12:40:51.836Z,8.80
2023-05-12T12:41:51.809Z,4.50
2023-05-12T12:42:51.799Z,7.20
2023-05-12T12:43:51.792Z,3.40
2023-05-12T12:44:51.780Z,4.40
2023-05-12T12:45:51.778Z,4.00
2023-05-12T12:46:51.798Z,3.10
2023-05-12T12:47:51.805Z,5.20
2023-05-12T12:48:51.781Z,5.10
2023-05-12T12:49:51.737Z,3.40
2023-05-12T12:50:51.750Z,3.90
2023-05-12T12:51:51.706Z,3.60
2023-05-12T12:52:51.693Z,4.50
2023-05-12T12:53:51.676Z,4.20
2023-05-12T12:54:51.696Z,3.40
2023-05-12T12:55:51.661Z,3.30
2023-05-12T12:56:51.675Z,5.30
2023-05-12T12:57:51.642Z,4.40
2023-05-12T12:58:51.634Z,4.90
2023-05-12T12:59:51.634Z,6.00
2023-05-12T13:00:51.629Z,3.40
2023-05-12T13:01:51.642Z,4.30
2023-05-12T13:02:51.680Z,6.50
2023-05-12T13:03:51.593Z,3.20
2023-05-12T13:04:51.576Z,3.90
2023-05-12T13:05:51.602Z,4.40
2023-05-12T13:06:51.547Z,3.80
2023-05-12T13:07:51.559Z,5.30
2023-05-12T13:08:51.537Z,5.00
2023-05-12T13:09:51.506Z,4.30
2023-05-12T13:10:51.491Z,5.00
2023-05-12T13:11:51.490Z,3.50
2023-05-12T13:12:51.478Z,5.30
2023-05-12T13:13:51.492Z,3.70
2023-05-12T13:14:51.453Z,5.90